Time;durP1;ratioP1;P1;durP2;ratioP2;P2;SDS_P1;SDS_P2;PMS_P1;PMS_P2;Temp;Humidity;BMP_temperature;BMP_pressure;BME280_temperature;BME280_humidity;BME280_pressure;Samples;Min_cycle;Max_cycle;Signal;HPM_P1;HPM_P2
2022/04/20 00:01:09;;;;;;;3.10;2.90;;;8.80;92.50;;;;;;485740;243;28053;-72
2022/04/20 00:03:10;;;;;;;2.77;2.57;;;8.80;92.30;;;;;;485765;245;27694;-70
2022/04/20 00:05:11;;;;;;;2.90;2.70;;;8.80;92.70;;;;;;485711;244;28227;-71
2022/04/20 00:07:12;;;;;;;2.80;2.60;;;8.70;92.40;;;;;;485738;243;28444;-71
2022/04/20 00:09:14;;;;;;;2.97;2.77;;;8.70;92.80;;;;;;485750;243;28576;-70
2022/04/20 00:11:15;;;;;;;5.03;2.30;;;8.70;93.00;;;;;;485741;243;28430;-72
2022/04/20 00:13:16;;;;;;;2.70;2.50;;;8.60;92.70;;;;;;485760;243;28428;-70
2022/04/20 00:15:17;;;;;;;3.07;2.87;;;8.70;92.60;;;;;;483550;241;28434;-70
2022/04/20 00:17:20;;;;;;;3.20;3.00;;;8.70;92.80;;;;;;485146;245;27936;-70
2022/04/20 00:19:20;;;;;;;2.90;2.70;;;8.60;92.40;;;;;;483877;245;28328;-70
2022/04/20 00:21:21;;;;;;;2.70;2.60;;;8.70;92.40;;;;;;482886;245;28435;-71
2022/04/20 00:23:22;;;;;;;2.80;2.60;;;8.70;92.30;;;;;;485698;244;28496;-71
2022/04/20 00:25:24;;;;;;;10.77;3.57;;;8.60;92.30;;;;;;485692;245;28422;-71
2022/04/20 00:27:25;;;;;;;3.10;2.90;;;8.60;92.40;;;;;;485631;243;27960;-71
2022/04/20 00:29:26;;;;;;;3.50;3.20;;;8.60;92.40;;;;;;485635;245;27929;-70
2022/04/20 00:31:27;;;;;;;2.90;2.70;;;8.60;92.40;;;;;;485689;243;28122;-71
2022/04/20 00:33:29;;;;;;;3.07;2.77;;;8.60;92.40;;;;;;485672;243;27608;-70
2022/04/20 00:35:30;;;;;;;4.00;3.20;;;8.60;92.40;;;;;;485726;243;27605;-70
2022/04/20 00:37:31;;;;;;;2.80;2.60;;;8.50;92.60;;;;;;485711;243;28311;-70
2022/04/20 00:39:32;;;;;;;3.03;2.73;;;8.50;92.50;;;;;;485696;243;28009;-70
2022/04/20 00:41:34;;;;;;;2.80;2.60;;;8.50;92.60;;;;;;485743;243;28108;-71
2022/04/20 00:43:35;;;;;;;2.87;2.60;;;8.40;92.60;;;;;;485800;243;27909;-70
2022/04/20 00:45:36;;;;;;;2.80;2.60;;;8.40;92.80;;;;;;482306;241;27951;-70
2022/04/20 00:47:37;;;;;;;3.53;3.23;;;8.40;92.90;;;;;;483533;245;28090;-74
2022/04/20 00:49:39;;;;;;;3.40;3.10;;;8.40;92.70;;;;;;482381;245;27705;-70
2022/04/20 00:51:40;;;;;;;3.40;2.70;;;8.40;92.80;;;;;;482902;245;27748;-72
2022/04/20 00:53:41;;;;;;;3.20;3.00;;;8.30;93.00;;;;;;483938;243;28277;-70
2022/04/20 00:55:42;;;;;;;3.03;2.70;;;8.30;93.10;;;;;;483881;245;28424;-71
2022/04/20 00:57:44;;;;;;;3.23;2.93;;;8.30;93.00;;;;;;483930;245;28380;-73
2022/04/20 00:59:45;;;;;;;3.77;2.97;;;8.30;93.00;;;;;;483950;245;28081;-70
2022/04/20 01:01:46;;;;;;;3.00;2.70;;;8.30;93.10;;;;;;483868;245;28464;-70
2022/04/20 01:03:47;;;;;;;3.50;3.20;;;8.20;93.30;;;;;;467331;252;28377;-70
2022/04/20 01:05:49;;;;;;;3.50;3.20;;;8.10;93.40;;;;;;483889;245;27682;-70
2022/04/20 01:07:50;;;;;;;3.50;3.20;;;8.20;93.30;;;;;;483890;243;27980;-73
2022/04/20 01:09:51;;;;;;;2.83;2.63;;;8.10;93.50;;;;;;483895;245;27822;-70
2022/04/20 01:11:52;;;;;;;3.07;2.70;;;8.00;93.60;;;;;;483939;245;27952;-71
2022/04/20 01:13:54;;;;;;;3.20;3.00;;;8.00;93.80;;;;;;483932;245;27800;-71
2022/04/20 01:15:55;;;;;;;3.50;3.00;;;8.00;93.50;;;;;;481481;243;27502;-70
2022/04/20 01:17:56;;;;;;;3.33;3.00;;;8.00;93.60;;;;;;482346;244;28094;-72
2022/04/20 01:19:57;;;;;;;3.07;2.83;;;8.00;93.80;;;;;;481976;244;28374;-70
2022/04/20 01:21:59;;;;;;;2.90;2.70;;;7.90;93.90;;;;;;475605;248;28011;-71
2022/04/20 01:24:00;;;;;;;3.60;2.93;;;7.90;94.00;;;;;;478026;247;27799;-70
2022/04/20 01:26:01;;;;;;;2.80;2.60;;;7.90;94.10;;;;;;474975;247;28028;-71
2022/04/20 01:28:02;;;;;;;3.20;3.00;;;7.80;94.10;;;;;;480908;247;27958;-71
2022/04/20 01:30:04;;;;;;;2.83;2.63;;;7.80;94.10;;;;;;481413;247;27917;-70
2022/04/20 01:32:05;;;;;;;3.13;2.80;;;7.80;94.30;;;;;;481412;247;27527;-71
2022/04/20 01:34:06;;;;;;;2.87;2.67;;;7.80;94.30;;;;;;481448;247;28436;-70
2022/04/20 01:36:07;;;;;;;3.33;3.03;;;7.80;94.20;;;;;;481398;247;28344;-70
2022/04/20 01:38:09;;;;;;;3.83;3.53;;;7.70;94.20;;;;;;481485;247;28213;-72
2022/04/20 01:40:10;;;;;;;3.27;3.07;;;7.80;94.20;;;;;;481414;247;28363;-70
2022/04/20 01:42:11;;;;;;;3.70;2.87;;;7.80;94.30;;;;;;481431;247;28609;-71
2022/04/20 01:44:12;;;;;;;3.20;2.60;;;7.70;94.40;;;;;;481452;247;27526;-72
2022/04/20 01:46:15;;;;;;;4.03;3.07;;;7.70;94.50;;;;;;481395;247;27869;-70
2022/04/20 01:48:15;;;;;;;3.43;3.03;;;7.60;94.60;;;;;;481399;247;27525;-71
2022/04/20 01:50:16;;;;;;;3.00;2.80;;;7.60;94.70;;;;;;481591;247;27905;-70
2022/04/20 01:52:17;;;;;;;3.37;3.03;;;7.60;94.70;;;;;;481851;246;27873;-70
2022/04/20 01:54:19;;;;;;;3.00;2.80;;;7.60;94.70;;;;;;481897;246;27904;-71
2022/04/20 01:56:20;;;;;;;3.10;2.77;;;7.60;94.90;;;;;;481861;246;28014;-70
2022/04/20 01:58:21;;;;;;;3.10;2.80;;;7.50;94.90;;;;;;481829;247;27673;-71
2022/04/20 02:00:22;;;;;;;4.67;2.80;;;7.50;94.90;;;;;;481845;246;27784;-70
2022/04/20 02:02:37;;;;;;;3.40;3.20;;;7.50;94.90;;;;;;481851;246;27890;-70
2022/04/20 02:04:37;;;;;;;3.33;3.00;;;7.40;95.10;;;;;;481805;246;27637;-72
2022/04/20 02:06:38;;;;;;;2.93;2.73;;;7.50;95.10;;;;;;481879;246;28016;-70
2022/04/20 02:08:39;;;;;;;2.67;2.47;;;7.40;95.20;;;;;;481845;246;27786;-70
2022/04/20 02:10:41;;;;;;;3.53;2.67;;;7.40;95.40;;;;;;481750;246;27992;-71
2022/04/20 02:12:42;;;;;;;3.43;2.90;;;7.30;95.30;;;;;;481792;246;27898;-70
2022/04/20 02:14:43;;;;;;;3.40;3.10;;;7.30;95.40;;;;;;481830;246;27891;-73
2022/04/20 02:16:44;;;;;;;3.87;2.80;;;7.30;95.50;;;;;;481883;246;27919;-70
2022/04/20 02:18:46;;;;;;;3.23;2.90;;;7.30;95.50;;;;;;481838;247;28006;-70
2022/04/20 02:20:47;;;;;;;3.33;3.03;;;7.30;95.70;;;;;;481846;246;27852;-70
2022/04/20 02:22:48;;;;;;;3.10;2.90;;;7.20;95.80;;;;;;481884;246;27430;-70
2022/04/20 02:24:49;;;;;;;2.80;2.70;;;7.20;95.90;;;;;;481897;246;27807;-72
2022/04/20 02:26:51;;;;;;;3.57;3.27;;;7.20;95.90;;;;;;481837;246;28375;-70
2022/04/20 02:28:52;;;;;;;3.20;3.00;;;7.20;95.80;;;;;;481881;247;28510;-70
2022/04/20 02:30:53;;;;;;;3.80;3.40;;;7.20;95.80;;;;;;481874;246;28338;-70
2022/04/20 02:32:54;;;;;;;3.30;3.00;;;7.20;95.80;;;;;;481855;246;28515;-70
2022/04/20 02:34:56;;;;;;;3.00;2.80;;;7.20;96.10;;;;;;481879;246;28015;-71
2022/04/20 02:36:57;;;;;;;3.30;3.10;;;7.20;96.10;;;;;;481843;246;27842;-70
2022/04/20 02:38:58;;;;;;;3.37;2.90;;;7.10;96.30;;;;;;481830;246;27922;-71
2022/04/20 02:40:59;;;;;;;3.50;3.03;;;7.10;96.50;;;;;;481879;246;28344;-70
2022/04/20 02:43:01;;;;;;;3.37;3.07;;;7.00;96.50;;;;;;481845;246;28739;-70
2022/04/20 02:45:02;;;;;;;3.40;3.10;;;7.00;96.60;;;;;;481894;246;27965;-72
2022/04/20 02:47:03;;;;;;;3.93;3.00;;;7.00;96.60;;;;;;481871;246;27853;-70
2022/04/20 02:49:05;;;;;;;3.10;2.90;;;6.90;96.70;;;;;;481835;246;27904;-70
2022/04/20 02:51:06;;;;;;;3.30;3.00;;;6.90;96.90;;;;;;481884;246;27977;-70
2022/04/20 02:53:07;;;;;;;2.80;2.60;;;6.90;97.20;;;;;;481898;247;27848;-70
2022/04/20 02:55:08;;;;;;;3.03;2.83;;;6.80;97.20;;;;;;481848;246;27659;-70
2022/04/20 02:57:09;;;;;;;3.00;2.80;;;6.80;97.40;;;;;;481874;246;28197;-71
2022/04/20 02:59:11;;;;;;;3.37;2.90;;;6.70;97.40;;;;;;481842;246;27860;-70
2022/04/20 03:01:12;;;;;;;3.60;3.30;;;6.80;97.60;;;;;;481853;246;27642;-72
2022/04/20 03:03:13;;;;;;;3.20;3.00;;;6.70;97.70;;;;;;481892;246;27865;-70
2022/04/20 03:05:14;;;;;;;3.40;3.03;;;6.70;97.60;;;;;;481842;246;28382;-71
2022/04/20 03:07:16;;;;;;;3.37;3.10;;;6.70;97.70;;;;;;481894;246;28377;-70
2022/04/20 03:09:17;;;;;;;3.67;3.20;;;6.70;97.80;;;;;;481903;246;28375;-71
2022/04/20 03:11:19;;;;;;;3.43;3.13;;;6.70;98.00;;;;;;481842;246;28673;-73
2022/04/20 03:13:19;;;;;;;3.23;2.93;;;6.60;98.10;;;;;;481894;246;28141;-71
2022/04/20 03:15:21;;;;;;;3.53;3.23;;;6.60;98.30;;;;;;481937;246;27840;-70
2022/04/20 03:17:22;;;;;;;3.83;3.07;;;6.60;98.30;;;;;;481897;247;27907;-70
2022/04/20 03:19:23;;;;;;;5.20;3.20;;;6.60;98.30;;;;;;481913;246;27940;-70
2022/04/20 03:21:24;;;;;;;3.50;3.20;;;6.60;98.50;;;;;;481921;246;27757;-72
2022/04/20 03:23:26;;;;;;;3.73;3.20;;;6.60;98.60;;;;;;481906;246;28098;-70
2022/04/20 03:25:27;;;;;;;3.50;3.30;;;6.50;98.80;;;;;;481923;246;27886;-70
2022/04/20 03:27:28;;;;;;;3.73;3.43;;;6.50;98.90;;;;;;481877;246;28716;-70
2022/04/20 03:29:29;;;;;;;4.43;3.60;;;6.50;99.00;;;;;;481932;246;28222;-70
2022/04/20 03:31:31;;;;;;;5.53;3.55;;;6.50;99.10;;;;;;481897;246;28743;-71
2022/04/20 03:33:32;;;;;;;2.87;2.77;;;6.50;99.00;;;;;;481876;247;27401;-70
2022/04/20 03:35:33;;;;;;;3.80;3.50;;;6.50;99.30;;;;;;481921;246;28765;-71
2022/04/20 03:37:34;;;;;;;3.47;3.07;;;6.40;99.30;;;;;;481904;246;29261;-70
2022/04/20 03:39:36;;;;;;;3.83;3.40;;;6.40;99.30;;;;;;481813;247;28468;-70
2022/04/20 03:41:37;;;;;;;3.47;3.28;;;6.40;99.40;;;;;;481884;246;29382;-70
2022/04/20 03:43:38;;;;;;;4.50;3.60;;;6.30;99.50;;;;;;481870;246;27369;-70
2022/04/20 03:45:39;;;;;;;3.70;3.40;;;6.30;99.60;;;;;;481904;246;27425;-71
2022/04/20 03:47:41;;;;;;;4.37;3.60;;;6.30;99.70;;;;;;481885;246;27404;-70
2022/04/20 03:49:42;;;;;;;5.40;3.40;;;6.30;99.90;;;;;;476745;243;27525;-70
2022/04/20 03:51:45;;;;;;;3.15;2.95;;;6.30;99.90;;;;;;476138;247;28049;-70
2022/04/20 03:53:45;;;;;;;3.85;3.42;;;6.30;99.90;;;;;;480136;247;27893;-70
2022/04/20 03:55:46;;;;;;;6.40;3.33;;;6.20;99.90;;;;;;476518;247;27970;-72
2022/04/20 03:57:47;;;;;;;3.37;3.15;;;6.20;99.90;;;;;;474918;250;28568;-70
2022/04/20 03:59:48;;;;;;;3.50;3.20;;;6.20;99.90;;;;;;474847;250;27523;-70
2022/04/20 04:01:51;;;;;;;3.50;3.20;;;6.20;99.90;;;;;;474852;250;27530;-72
2022/04/20 04:03:51;;;;;;;3.35;3.15;;;6.20;99.90;;;;;;474811;250;27550;-70
2022/04/20 04:05:52;;;;;;;3.57;3.27;;;6.20;99.90;;;;;;474831;250;27523;-71
2022/04/20 04:07:53;;;;;;;3.58;3.20;;;6.20;99.90;;;;;;474875;250;28053;-69
2022/04/20 04:09:55;;;;;;;3.70;3.40;;;6.10;99.90;;;;;;474868;250;27967;-70
2022/04/20 04:11:56;;;;;;;4.22;3.30;;;6.10;99.90;;;;;;474857;250;28068;-71
2022/04/20 04:13:57;;;;;;;4.45;4.05;;;6.10;99.90;;;;;;474903;250;27584;-70
2022/04/20 04:15:58;;;;;;;3.30;3.10;;;6.10;99.90;;;;;;474884;250;27519;-71
2022/04/20 04:18:00;;;;;;;3.60;3.35;;;6.10;99.90;;;;;;475521;243;27561;-70
2022/04/20 04:20:01;;;;;;;3.70;3.30;;;6.00;99.90;;;;;;476975;247;27504;-70
2022/04/20 04:22:02;;;;;;;3.62;3.33;;;6.00;99.90;;;;;;478717;247;28787;-71
2022/04/20 04:24:03;;;;;;;4.15;3.85;;;6.00;99.90;;;;;;477459;247;28074;-70
2022/04/20 04:26:05;;;;;;;4.80;3.53;;;6.00;99.90;;;;;;481053;246;27972;-70
2022/04/20 04:28:06;;;;;;;4.30;3.70;;;6.00;99.90;;;;;;481910;246;28549;-70
2022/04/20 04:30:07;;;;;;;3.55;3.35;;;6.00;99.90;;;;;;481875;246;28776;-70
2022/04/20 04:32:08;;;;;;;4.00;3.58;;;6.00;99.90;;;;;;481880;246;27528;-72
2022/04/20 04:34:10;;;;;;;4.25;3.95;;;6.00;99.90;;;;;;481872;246;27531;-70
2022/04/20 04:36:11;;;;;;;4.20;3.80;;;6.00;99.90;;;;;;481883;246;27515;-70
2022/04/20 04:38:14;;;;;;;4.00;3.70;;;6.00;99.90;;;;;;481892;246;28826;-70
2022/04/20 04:40:14;;;;;;;4.00;3.70;;;6.00;99.90;;;;;;481731;246;28405;-70
2022/04/20 04:42:15;;;;;;;3.57;3.27;;;6.00;99.90;;;;;;481873;246;29287;-71
2022/04/20 04:44:16;;;;;;;3.42;3.17;;;6.00;99.90;;;;;;481884;246;29272;-70
2022/04/20 04:48:36;;;;;;;3.50;3.30;;;6.00;99.90;;;;;;480061;243;27767;-73
2022/04/20 04:50:38;;;;;;;3.50;3.25;;;6.00;99.90;;;;;;478390;247;27519;-70
2022/04/20 04:52:39;;;;;;;3.30;3.00;;;6.10;99.90;;;;;;475914;247;27984;-71
2022/04/20 04:54:40;;;;;;;3.40;3.10;;;6.00;99.90;;;;;;475650;247;28305;-70
2022/04/20 04:56:42;;;;;;;3.17;2.97;;;6.00;99.90;;;;;;480606;247;27531;-70
2022/04/20 04:58:43;;;;;;;3.53;3.23;;;6.10;99.90;;;;;;481234;247;27430;-72
2022/04/20 05:00:44;;;;;;;3.03;2.83;;;6.00;99.90;;;;;;481221;247;28835;-70
2022/04/20 05:02:45;;;;;;;2.80;2.70;;;6.00;99.90;;;;;;481231;247;27655;-70
2022/04/20 05:04:46;;;;;;;2.80;2.60;;;6.00;99.90;;;;;;481286;247;27523;-71
2022/04/20 05:06:48;;;;;;;2.80;2.60;;;6.00;99.90;;;;;;481252;247;27431;-70
2022/04/20 05:08:49;;;;;;;2.80;2.60;;;5.90;99.90;;;;;;481249;247;27775;-72
2022/04/20 05:10:50;;;;;;;3.80;3.43;;;5.90;99.90;;;;;;481281;247;28097;-69
2022/04/20 05:12:51;;;;;;;3.07;2.87;;;6.00;99.90;;;;;;481149;247;28252;-71
2022/04/20 05:14:53;;;;;;;3.28;3.05;;;6.00;99.90;;;;;;481297;247;29998;-70
2022/04/20 05:16:55;;;;;;;4.22;3.83;;;6.10;99.90;;;;;;481273;247;27855;-70
2022/04/20 05:18:56;;;;;;;3.30;3.10;;;6.10;99.90;;;;;;479813;243;27422;-71
2022/04/20 05:20:57;;;;;;;3.70;3.40;;;6.10;99.90;;;;;;477497;243;27474;-70
2022/04/20 05:22:58;;;;;;;3.73;3.43;;;6.10;99.90;;;;;;476991;247;28105;-70
2022/04/20 05:24:59;;;;;;;5.73;3.97;;;6.10;99.90;;;;;;481073;246;29188;-70
2022/04/20 05:27:00;;;;;;;4.20;3.90;;;6.20;99.90;;;;;;478119;246;28809;-70
2022/04/20 05:29:01;;;;;;;4.60;4.20;;;6.30;99.90;;;;;;475623;247;28866;-72
2022/04/20 05:31:03;;;;;;;4.80;3.90;;;6.30;99.90;;;;;;480896;247;27965;-70
2022/04/20 05:33:04;;;;;;;4.10;3.80;;;6.40;99.90;;;;;;481263;247;28900;-71
2022/04/20 05:35:05;;;;;;;3.73;3.23;;;6.30;99.90;;;;;;481227;247;29210;-70
2022/04/20 05:41:46;;;;;;;4.00;3.60;;;6.50;99.90;;;;;;481230;247;27784;-69
2022/04/20 05:43:47;;;;;;;3.73;3.43;;;6.50;99.90;;;;;;481275;242;29286;-70
2022/04/20 05:45:50;;;;;;;3.90;3.60;;;6.60;99.90;;;;;;481251;247;28245;-71
2022/04/20 05:47:49;;;;;;;3.50;3.07;;;6.60;99.90;;;;;;481147;247;28404;-70
2022/04/20 05:49:51;;;;;;;3.80;3.50;;;6.70;99.90;;;;;;480547;243;28351;-70
2022/04/20 05:51:52;;;;;;;3.93;3.63;;;6.70;99.90;;;;;;474311;247;29277;-70
2022/04/20 05:53:53;;;;;;;3.67;3.47;;;6.70;99.90;;;;;;476113;247;27972;-71
2022/04/20 05:55:54;;;;;;;4.03;3.47;;;6.80;99.90;;;;;;475619;247;27956;-72
2022/04/20 05:57:56;;;;;;;4.30;3.67;;;6.90;99.90;;;;;;480836;247;27828;-70
2022/04/20 05:59:57;;;;;;;7.00;3.60;;;6.90;99.90;;;;;;479724;243;28127;-70
2022/04/20 06:01:58;;;;;;;4.37;3.97;;;7.00;99.90;;;;;;479054;247;27978;-70
2022/04/20 06:03:59;;;;;;;3.90;3.60;;;7.10;99.90;;;;;;478782;247;27850;-71
2022/04/20 06:06:01;;;;;;;4.60;4.20;;;7.10;99.90;;;;;;479896;247;28113;-71
2022/04/20 06:08:02;;;;;;;4.67;4.27;;;7.10;99.90;;;;;;481048;247;27584;-70
2022/04/20 06:10:03;;;;;;;4.20;3.90;;;7.20;99.90;;;;;;481310;247;28362;-71
2022/04/20 06:12:04;;;;;;;4.23;3.83;;;7.30;99.90;;;;;;481909;246;28675;-70
2022/04/20 06:14:06;;;;;;;5.10;4.57;;;7.30;99.90;;;;;;481831;246;28355;-70
2022/04/20 06:16:07;;;;;;;3.80;3.53;;;7.40;99.90;;;;;;481870;246;28458;-71
2022/04/20 06:18:08;;;;;;;5.07;4.67;;;7.40;99.90;;;;;;481891;246;28058;-71
2022/04/20 06:20:09;;;;;;;6.20;4.37;;;7.50;99.90;;;;;;479383;243;28618;-70
2022/04/20 06:22:11;;;;;;;5.07;4.60;;;7.60;99.90;;;;;;471062;249;27880;-68
2022/04/20 06:24:13;;;;;;;4.60;4.20;;;7.60;99.90;;;;;;478730;243;27951;-70
2022/04/20 06:26:13;;;;;;;4.40;4.10;;;7.70;99.90;;;;;;477648;247;27994;-73
2022/04/20 06:28:14;;;;;;;4.67;4.20;;;7.80;99.90;;;;;;476016;247;27683;-70
2022/04/20 06:30:16;;;;;;;4.40;4.00;;;7.70;99.90;;;;;;478045;246;27759;-71
2022/04/20 06:32:18;;;;;;;4.47;4.07;;;7.70;99.90;;;;;;478999;247;27770;-70
2022/04/20 06:34:18;;;;;;;3.70;3.40;;;7.80;99.90;;;;;;480172;247;27880;-71
2022/04/20 06:36:19;;;;;;;4.70;4.20;;;7.90;99.30;;;;;;480197;247;28007;-72
2022/04/20 06:38:21;;;;;;;4.17;3.87;;;7.90;99.70;;;;;;476404;243;27539;-70
2022/04/20 06:40:22;;;;;;;4.70;4.30;;;8.00;99.60;;;;;;484813;243;28386;-74
2022/04/20 06:42:23;;;;;;;4.47;4.03;;;8.00;99.80;;;;;;485208;241;27872;-71
2022/04/20 06:44:24;;;;;;;4.20;3.90;;;8.10;99.40;;;;;;487092;241;27906;-71
2022/04/20 06:46:26;;;;;;;4.50;4.20;;;8.10;99.10;;;;;;487166;243;27931;-73
2022/04/20 06:48:27;;;;;;;4.20;3.90;;;8.20;99.70;;;;;;477734;243;28520;-70
2022/04/20 06:50:28;;;;;;;4.00;3.77;;;8.30;99.50;;;;;;484613;243;28395;-71
2022/04/20 06:59:28;;;;;;;5.20;4.70;;;8.30;98.70;;;;;;480162;247;27967;-70
2022/04/20 07:01:30;;;;;;;5.00;4.50;;;8.30;98.70;;;;;;484972;243;27865;-74
2022/04/20 07:03:31;;;;;;;6.33;5.10;;;8.30;98.80;;;;;;480892;241;27911;-75
2022/04/20 07:05:32;;;;;;;5.33;4.83;;;8.30;99.10;;;;;;480123;243;27840;-70
2022/04/20 07:07:33;;;;;;;4.77;4.37;;;8.40;98.40;;;;;;479666;243;28032;-73
2022/04/20 07:09:35;;;;;;;5.30;4.63;;;8.50;98.50;;;;;;482581;243;27860;-72
2022/04/20 07:11:36;;;;;;;6.10;4.00;;;8.60;98.30;;;;;;482996;243;27861;-74
2022/04/20 07:13:37;;;;;;;4.37;4.07;;;8.60;98.30;;;;;;482599;241;27644;-70
2022/04/20 07:15:38;;;;;;;3.77;3.47;;;8.60;98.50;;;;;;479603;243;28030;-71
2022/04/20 07:17:40;;;;;;;3.70;3.23;;;8.60;98.40;;;;;;482929;243;28292;-71
2022/04/20 07:19:41;;;;;;;4.43;3.57;;;8.70;98.50;;;;;;478705;243;27492;-71
2022/04/20 07:21:42;;;;;;;5.93;3.97;;;8.70;98.30;;;;;;479919;243;27906;-72
2022/04/20 07:23:43;;;;;;;4.23;3.83;;;8.70;98.20;;;;;;482778;243;27927;-71
2022/04/20 07:25:45;;;;;;;3.40;3.10;;;8.80;98.10;;;;;;479978;243;28425;-71
2022/04/20 07:27:48;;;;;;;5.10;4.03;;;8.80;98.10;;;;;;483207;242;29220;-70
2022/04/20 07:29:47;;;;;;;4.20;3.40;;;8.90;97.70;;;;;;486214;242;27987;-71
2022/04/20 07:31:48;;;;;;;2.90;2.70;;;8.90;96.70;;;;;;480964;241;28192;-71
2022/04/20 07:33:50;;;;;;;4.13;3.67;;;8.90;97.20;;;;;;479123;241;28551;-72
2022/04/20 07:35:51;;;;;;;3.67;3.37;;;8.90;96.70;;;;;;478930;247;28367;-72
2022/04/20 07:37:52;;;;;;;3.70;3.40;;;9.00;96.60;;;;;;476726;247;29244;-73
2022/04/20 07:39:53;;;;;;;3.80;3.50;;;8.90;96.40;;;;;;477715;243;28417;-71
2022/04/20 07:41:55;;;;;;;3.50;3.20;;;9.00;95.70;;;;;;479912;243;27888;-71
2022/04/20 07:43:56;;;;;;;3.87;3.47;;;9.00;96.30;;;;;;482671;241;27709;-71
2022/04/20 07:45:57;;;;;;;3.93;3.53;;;9.10;95.40;;;;;;484844;243;27849;-72
2022/04/20 07:47:58;;;;;;;3.43;3.20;;;9.00;94.30;;;;;;483061;242;27853;-73
2022/04/20 07:50:19;;;;;;;3.57;3.27;;;8.90;94.40;;;;;;480077;243;28197;-70
2022/04/20 07:52:20;;;;;;;3.93;2.93;;;8.90;93.90;;;;;;486613;243;27984;-70
2022/04/20 07:54:22;;;;;;;4.80;3.43;;;9.00;94.20;;;;;;485434;243;27543;-70
2022/04/20 07:56:23;;;;;;;4.77;3.70;;;9.10;94.70;;;;;;478671;243;28270;-70
2022/04/20 07:58:24;;;;;;;4.73;3.50;;;9.10;95.10;;;;;;481962;243;28469;-69
2022/04/20 08:00:25;;;;;;;3.53;3.23;;;9.20;95.80;;;;;;479339;243;27843;-72
2022/04/20 08:02:26;;;;;;;3.80;3.50;;;9.20;94.90;;;;;;481094;243;27883;-71
2022/04/20 08:04:28;;;;;;;3.30;3.10;;;9.30;95.10;;;;;;487318;243;28542;-69
2022/04/20 08:06:30;;;;;;;4.00;3.40;;;9.40;95.20;;;;;;477472;243;27966;-69
2022/04/20 08:08:30;;;;;;;4.30;3.47;;;9.40;94.70;;;;;;482075;242;27970;-73
2022/04/20 08:10:31;;;;;;;3.37;3.10;;;9.40;94.70;;;;;;476043;243;27645;-74
2022/04/20 08:12:33;;;;;;;3.60;3.30;;;9.50;94.60;;;;;;483818;243;27911;-72
2022/04/20 08:14:34;;;;;;;3.60;3.30;;;9.50;94.30;;;;;;481900;242;27977;-71
2022/04/20 08:16:35;;;;;;;4.73;3.20;;;9.40;93.50;;;;;;479662;243;28081;-74
2022/04/20 08:18:36;;;;;;;3.60;3.30;;;9.30;93.80;;;;;;481256;242;28383;-69
2022/04/20 08:20:38;;;;;;;7.83;4.00;;;9.40;93.20;;;;;;488123;241;27588;-71
2022/04/20 08:22:40;;;;;;;3.30;3.00;;;9.50;93.30;;;;;;479202;243;27523;-69
2022/04/20 08:24:43;;;;;;;5.10;3.37;;;9.60;92.80;;;;;;480244;243;28338;-71
2022/04/20 08:26:42;;;;;;;3.90;3.40;;;9.60;92.80;;;;;;477939;243;28109;-74
2022/04/20 08:28:43;;;;;;;3.90;3.60;;;9.60;93.20;;;;;;475263;247;28265;-72
2022/04/20 08:30:44;;;;;;;4.07;3.20;;;9.80;92.60;;;;;;482061;243;27980;-73
2022/04/20 08:32:45;;;;;;;4.50;4.10;;;9.90;93.40;;;;;;482867;243;28409;-71
2022/04/20 08:34:48;;;;;;;3.97;3.67;;;9.70;92.90;;;;;;485114;242;28313;-71
2022/04/20 08:36:48;;;;;;;5.33;3.97;;;9.90;93.30;;;;;;479235;242;27662;-73
2022/04/20 08:38:49;;;;;;;3.50;3.20;;;10.00;93.20;;;;;;485142;243;27622;-71
2022/04/20 08:40:50;;;;;;;4.70;4.30;;;10.00;93.20;;;;;;479949;243;27770;-71
2022/04/20 08:42:52;;;;;;;4.37;3.97;;;10.00;93.70;;;;;;480690;243;27702;-72
2022/04/20 08:44:55;;;;;;;4.87;4.53;;;10.00;92.70;;;;;;484488;243;28082;-71
2022/04/20 08:46:55;;;;;;;4.67;4.23;;;10.00;93.90;;;;;;476564;247;27654;-72
2022/04/20 08:48:55;;;;;;;4.00;3.70;;;10.30;94.40;;;;;;477293;248;28053;-71
2022/04/20 08:50:57;;;;;;;3.60;3.40;;;10.20;93.90;;;;;;483173;242;28336;-71
2022/04/20 08:52:58;;;;;;;5.70;3.63;;;10.20;93.80;;;;;;484397;243;28498;-71
2022/04/20 08:54:59;;;;;;;4.90;4.00;;;10.20;92.20;;;;;;482881;243;28332;-71
2022/04/20 08:57:16;;;;;;;4.43;3.70;;;10.00;92.20;;;;;;488163;241;28226;-72
2022/04/20 08:59:17;;;;;;;4.17;3.87;;;10.10;92.20;;;;;;482383;241;27836;-71
2022/04/20 09:01:19;;;;;;;4.00;3.70;;;10.20;92.00;;;;;;481054;243;28314;-74
2022/04/20 09:03:20;;;;;;;4.10;3.80;;;10.30;92.00;;;;;;480085;243;27827;-71
2022/04/20 09:05:21;;;;;;;4.93;3.83;;;10.30;91.60;;;;;;477368;243;27946;-72
2022/04/20 09:07:22;;;;;;;3.63;3.33;;;10.30;89.80;;;;;;487336;243;28553;-70
2022/04/20 09:09:28;;;;;;;5.37;3.40;;;10.20;90.50;;;;;;482474;243;28649;-71
2022/04/20 09:11:24;;;;;;;3.43;3.20;;;10.30;90.60;;;;;;483050;243;29289;-73
2022/04/20 09:13:26;;;;;;;4.90;3.67;;;10.40;90.40;;;;;;479044;243;27938;-73
2022/04/20 09:15:27;;;;;;;4.37;3.50;;;10.20;90.00;;;;;;480343;241;27618;-71
2022/04/20 09:17:31;;;;;;;4.53;3.67;;;10.10;89.80;;;;;;482202;241;28096;-71
2022/04/20 09:19:29;;;;;;;4.10;3.37;;;10.00;89.30;;;;;;483205;243;27878;-71
2022/04/20 09:21:31;;;;;;;3.10;2.90;;;10.10;90.60;;;;;;479811;242;27877;-74
2022/04/20 09:23:33;;;;;;;3.50;2.90;;;10.30;90.60;;;;;;479294;243;27808;-72
2022/04/20 09:25:34;;;;;;;4.00;3.13;;;10.50;90.60;;;;;;476594;246;28186;-74
2022/04/20 09:27:34;;;;;;;4.00;3.70;;;10.60;90.50;;;;;;479414;243;27956;-71
2022/04/20 09:29:36;;;;;;;3.40;3.13;;;10.60;90.60;;;;;;482467;243;27991;-71
2022/04/20 09:31:37;;;;;;;3.97;3.67;;;10.70;89.60;;;;;;478664;243;28643;-72
2022/04/20 09:33:38;;;;;;;3.87;3.40;;;10.90;88.10;;;;;;479380;243;28503;-72
2022/04/20 09:35:39;;;;;;;3.57;2.90;;;10.70;86.40;;;;;;481564;242;28515;-69
2022/04/20 09:37:41;;;;;;;4.27;3.30;;;10.70;85.70;;;;;;482923;243;29311;-71
2022/04/20 09:39:42;;;;;;;3.97;3.67;;;10.50;85.60;;;;;;478977;242;27852;-71
2022/04/20 09:41:44;;;;;;;5.57;3.80;;;10.50;85.30;;;;;;485189;241;27981;-73
2022/04/20 09:43:45;;;;;;;3.87;3.57;;;10.20;86.80;;;;;;482986;243;27831;-71
2022/04/20 09:45:46;;;;;;;3.60;3.30;;;10.40;88.50;;;;;;485560;242;28078;-72
2022/04/20 09:50:06;;;;;;;5.63;3.03;;;10.60;89.30;;;;;;482608;243;28549;-71
2022/04/20 09:52:08;;;;;;;3.73;3.40;;;10.90;89.70;;;;;;477417;246;27947;-70
2022/04/20 09:54:09;;;;;;;4.57;4.17;;;10.90;89.90;;;;;;475777;248;28104;-71
2022/04/20 09:56:10;;;;;;;4.10;3.70;;;10.70;89.90;;;;;;485411;242;27748;-71
2022/04/20 09:58:11;;;;;;;3.90;3.60;;;10.30;90.50;;;;;;484033;242;28082;-74
2022/04/20 10:00:13;;;;;;;3.73;3.37;;;10.50;89.80;;;;;;480669;243;27914;-71
2022/04/20 10:02:14;;;;;;;5.93;3.30;;;10.80;89.80;;;;;;480088;243;27963;-72
2022/04/20 10:04:15;;;;;;;4.73;3.67;;;10.70;87.90;;;;;;483169;243;28025;-72
2022/04/20 10:06:16;;;;;;;9.10;3.00;;;10.70;88.10;;;;;;477054;246;28105;-72
2022/04/20 10:08:18;;;;;;;4.07;2.63;;;10.80;88.50;;;;;;476823;248;28109;-75
2022/04/20 10:10:19;;;;;;;3.23;2.63;;;10.90;88.10;;;;;;484190;242;28445;-71
2022/04/20 10:12:20;;;;;;;3.13;2.87;;;10.90;88.00;;;;;;480912;243;28619;-72
2022/04/20 10:16:41;;;;;;;3.70;3.30;;;11.00;90.00;;;;;;485551;242;27976;-69
2022/04/20 10:18:43;;;;;;;5.63;3.07;;;10.90;89.70;;;;;;484235;243;28610;-70
2022/04/20 10:20:46;;;;;;;5.50;3.00;;;11.00;87.90;;;;;;479128;243;28388;-71
2022/04/20 10:22:45;;;;;;;4.20;3.47;;;11.10;88.40;;;;;;476958;243;28551;-71
2022/04/20 10:24:46;;;;;;;4.23;3.37;;;11.20;88.70;;;;;;479185;243;28693;-73
2022/04/20 10:26:47;;;;;;;3.70;3.40;;;10.70;88.70;;;;;;479656;243;28160;-71
2022/04/20 10:28:49;;;;;;;3.20;3.00;;;11.10;89.40;;;;;;485035;243;28293;-71
2022/04/20 10:30:50;;;;;;;2.97;2.67;;;11.10;87.50;;;;;;479680;243;28032;-70
2022/04/20 10:32:51;;;;;;;2.97;2.77;;;11.30;88.60;;;;;;484874;243;28153;-73
2022/04/20 10:34:52;;;;;;;3.23;3.03;;;11.30;88.30;;;;;;483131;243;28016;-73
2022/04/20 10:36:54;;;;;;;3.30;3.00;;;11.50;88.50;;;;;;482765;243;28339;-71
2022/04/20 10:38:55;;;;;;;3.60;3.30;;;11.70;87.70;;;;;;484951;242;28287;-72
2022/04/20 10:40:56;;;;;;;3.80;2.57;;;11.60;86.30;;;;;;486474;241;28240;-71
2022/04/20 10:42:57;;;;;;;3.60;3.30;;;11.50;88.00;;;;;;484948;241;28257;-71
2022/04/20 10:45:00;;;;;;;3.30;2.90;;;11.70;88.80;;;;;;483360;241;28644;-73
2022/04/20 10:47:00;;;;;;;3.20;2.77;;;11.90;89.00;;;;;;482271;242;28714;-71
2022/04/20 10:49:07;;;;;;;3.00;2.80;;;;;;;;;;479456;243;29013;-75
2022/04/20 10:51:04;;;;;;;3.80;2.90;;;11.70;90.50;;;;;;480505;243;26944;-72
2022/04/20 10:53:06;;;;;;;3.77;3.37;;;11.60;87.20;;;;;;480089;243;28106;-73
2022/04/20 10:55:06;;;;;;;3.60;3.30;;;11.30;87.90;;;;;;479004;243;28334;-71
2022/04/20 10:57:07;;;;;;;4.40;2.70;;;11.50;88.40;;;;;;478681;243;28384;-72